Time;durP1;ratioP1;P1;durP2;ratioP2;P2;SDS_P1;SDS_P2;PMS_P1;PMS_P2;Temp;Humidity;BMP_temperature;BMP_pressure;BME280_temperature;BME280_humidity;BME280_pressure;Samples;Min_cycle;Max_cycle;Signal;HPM_P1;HPM_P2
2023/07/17 00:02:19;;;;;;;3.17;2.90;;;;;;;19.71;64.86;100812.81;4984682;28;20679;-79
2023/07/17 00:04:47;;;;;;;3.87;2.80;;;;;;;19.70;65.02;100808.44;4958194;28;20269;-80
2023/07/17 00:07:13;;;;;;;3.07;2.77;;;;;;;19.65;64.99;100808.66;4956773;28;20304;-79
2023/07/17 00:09:40;;;;;;;3.07;2.83;;;;;;;19.61;65.60;100799.16;4957511;28;20245;-80
2023/07/17 00:12:07;;;;;;;3.47;3.20;;;;;;;19.60;65.81;100782.44;4957210;28;20212;-80
2023/07/17 00:14:33;;;;;;;3.50;2.97;;;;;;;19.57;66.09;100774.63;4974674;28;20564;-80
2023/07/17 00:17:00;;;;;;;3.53;2.97;;;;;;;19.54;66.30;100758.88;4970520;28;20212;-79
2023/07/17 00:19:26;;;;;;;4.57;3.30;;;;;;;19.55;66.42;100752.66;4957123;28;20239;-79
2023/07/17 00:21:54;;;;;;;3.47;3.17;;;;;;;19.52;66.18;100755.47;4958380;28;20201;-81
2023/07/17 00:24:20;;;;;;;3.60;3.30;;;;;;;19.53;66.31;100754.53;4958833;28;20216;-81
2023/07/17 00:26:47;;;;;;;3.90;3.50;;;;;;;19.50;66.48;100753.84;4978404;28;20204;-81
2023/07/17 00:29:21;;;;;;;4.00;3.40;;;;;;;19.47;66.74;100748.72;4978544;28;20639;-81
2023/07/17 00:31:47;;;;;;;4.03;2.77;;;;;;;19.43;66.33;100755.94;4979906;28;20232;-81
2023/07/17 00:34:14;;;;;;;3.37;2.73;;;;;;;19.41;66.45;100760.47;4978801;28;20208;-80
2023/07/17 00:36:40;;;;;;;4.37;3.13;;;;;;;19.40;66.63;100756.09;4976928;28;20219;-80
2023/07/17 00:39:08;;;;;;;3.40;3.10;;;;;;;19.35;66.96;100752.84;4958420;28;20287;-81
2023/07/17 00:41:34;;;;;;;3.67;3.37;;;;;;;19.35;67.30;100747.53;4975451;28;20639;-80
2023/07/17 00:44:01;;;;;;;3.47;3.17;;;;;;;19.35;67.67;100727.22;4978165;28;20207;-81
2023/07/17 00:46:27;;;;;;;3.43;2.90;;;;;;;19.34;67.52;100728.13;4978275;28;20231;-81
2023/07/17 00:48:54;;;;;;;3.47;3.10;;;;;;;19.36;67.20;100736.84;4981012;28;20239;-80
2023/07/17 00:51:20;;;;;;;3.37;3.00;;;;;;;19.35;66.97;100740.44;4983331;28;20219;-81
2023/07/17 00:53:47;;;;;;;3.57;2.80;;;;;;;19.38;67.29;100734.97;4978282;28;20258;-81
2023/07/17 00:56:15;;;;;;;3.67;2.87;;;;;;;19.37;67.15;100741.22;4978962;28;20204;-81
2023/07/17 00:58:41;;;;;;;3.87;3.00;;;;;;;19.38;66.76;100757.97;4977695;28;20232;-82
2023/07/17 01:01:08;;;;;;;6.93;2.93;;;;;;;19.40;66.95;100756.09;4982676;28;20213;-81
2023/07/17 01:03:34;;;;;;;3.73;3.20;;;;;;;19.40;67.08;100750.78;4964490;28;20219;-81
2023/07/17 01:06:02;;;;;;;3.67;3.13;;;;;;;19.35;67.60;100748.41;4958958;28;20258;-81
2023/07/17 01:08:28;;;;;;;3.63;3.33;;;;;;;19.35;67.38;100736.97;4958606;28;20229;-81
2023/07/17 01:10:56;;;;;;;3.53;2.93;;;;;;;19.34;67.52;100730.78;4970544;28;20227;-81
2023/07/17 01:13:24;;;;;;;5.70;3.47;;;;;;;19.33;68.66;100704.41;4977938;28;20214;-81
2023/07/17 01:15:50;;;;;;;3.13;2.83;;;;;;;19.29;68.88;100694.91;4978199;28;20214;-81
2023/07/17 01:18:16;;;;;;;3.50;3.20;;;;;;;19.29;68.72;100685.19;4978659;28;20236;-80
2023/07/17 01:20:43;;;;;;;3.67;3.23;;;;;;;19.25;68.53;100688.91;4978450;28;20255;-81
2023/07/17 01:23:11;;;;;;;3.60;3.30;;;;;;;19.24;68.76;100682.75;4978202;28;20270;-82
2023/07/17 01:25:38;;;;;;;3.93;3.37;;;;;;;19.17;68.38;100691.09;4977344;28;20217;-81
2023/07/17 01:28:04;;;;;;;3.90;3.57;;;;;;;19.16;67.38;100718.50;4959405;28;20205;-82
2023/07/17 01:30:31;;;;;;;3.87;3.47;;;;;;;19.10;67.59;100718.81;4960408;28;20919;-81
2023/07/17 01:32:57;;;;;;;3.37;3.07;;;;;;;19.11;67.32;100731.97;4971500;28;20200;-81
2023/07/17 01:35:24;;;;;;;5.57;3.33;;;;;;;19.09;67.34;100735.59;4979828;28;20208;-81
2023/07/17 01:37:50;;;;;;;3.40;3.10;;;;;;;19.09;67.31;100755.00;4982501;28;20216;-80
2023/07/17 01:40:18;;;;;;;4.73;3.33;;;;;;;18.68;66.98;100800.13;4993008;28;20254;-80
2023/07/17 01:42:44;;;;;;;3.70;3.40;;;;;;;17.67;70.98;100752.69;4999795;28;20213;-79
2023/07/17 01:45:11;;;;;;;3.43;3.13;;;;;;;17.39;73.02;100650.94;4974259;28;20205;-79
2023/07/17 01:47:37;;;;;;;3.93;3.63;;;;;;;17.63;72.75;100617.31;4971376;28;20204;-81
2023/07/17 01:50:04;;;;;;;3.53;3.20;;;;;;;17.75;72.66;100592.13;4962548;28;20287;-80
2023/07/17 01:52:30;;;;;;;4.13;3.50;;;;;;;17.91;73.12;100583.53;4976860;28;20211;-82
2023/07/17 01:54:57;;;;;;;3.13;2.83;;;;;;;18.04;73.31;100556.47;4980089;28;20267;-81
2023/07/17 01:57:25;;;;;;;4.07;3.57;;;;;;;18.11;73.22;100550.88;4988873;28;20238;-79
2023/07/17 01:59:51;;;;;;;3.53;3.23;;;;;;;18.21;72.94;100557.44;4983653;28;20298;-82
2023/07/17 02:02:17;;;;;;;4.10;3.50;;;;;;;18.26;72.16;100576.56;4979269;28;20268;-80
2023/07/17 02:04:44;;;;;;;6.57;3.57;;;;;;;18.25;71.56;100595.97;4978795;28;20259;-82
2023/07/17 02:07:10;;;;;;;3.93;3.60;;;;;;;18.27;72.03;100604.69;4978483;28;20212;-81
2023/07/17 02:09:37;;;;;;;3.83;3.23;;;;;;;18.25;71.91;100611.84;4978739;28;20228;-81
2023/07/17 02:12:03;;;;;;;3.47;3.13;;;;;;;18.22;72.02;100604.91;4978052;28;20563;-81
2023/07/17 02:14:31;;;;;;;3.90;3.40;;;;;;;18.22;71.85;100612.84;4978479;28;20212;-80
2023/07/17 02:16:58;;;;;;;3.40;3.10;;;;;;;18.21;71.84;100602.34;4979050;28;20619;-80
2023/07/17 02:19:24;;;;;;;4.20;3.17;;;;;;;18.21;71.59;100613.75;4980386;28;20236;-80
2023/07/17 02:21:51;;;;;;;3.80;3.30;;;;;;;18.19;72.14;100615.63;4978548;28;20212;-81
2023/07/17 02:24:17;;;;;;;3.43;3.20;;;;;;;18.16;72.79;100610.50;4980291;28;20215;-81
2023/07/17 02:26:44;;;;;;;3.70;3.40;;;;;;;18.19;72.80;100604.22;4980469;28;20231;-82
2023/07/17 02:29:10;;;;;;;4.13;3.40;;;;;;;18.19;72.30;100607.69;4977409;28;20271;-81
2023/07/17 02:31:38;;;;;;;3.47;3.27;;;;;;;18.20;71.88;100614.72;4985159;28;20211;-79
2023/07/17 02:34:04;;;;;;;4.00;3.60;;;;;;;18.19;71.82;100620.91;4969946;28;20628;-81
2023/07/17 02:36:31;;;;;;;3.83;3.40;;;;;;;18.17;71.71;100629.84;4977348;28;20215;-78
2023/07/17 02:38:57;;;;;;;4.33;3.47;;;;;;;18.18;71.47;100640.34;4976451;28;20282;-80
2023/07/17 02:41:23;;;;;;;4.00;3.70;;;;;;;18.19;71.40;100638.56;4977523;28;20222;-80
2023/07/17 02:43:51;;;;;;;4.27;3.80;;;;;;;18.17;72.15;100628.06;4977307;28;20753;-81
2023/07/17 02:46:17;;;;;;;6.77;3.87;;;;;;;18.21;71.75;100623.47;4980393;28;20213;-80
2023/07/17 02:48:45;;;;;;;3.67;3.37;;;;;;;18.22;71.31;100638.41;4975246;28;20734;-80
2023/07/17 02:51:12;;;;;;;5.33;4.03;;;;;;;18.23;70.62;100659.47;4978622;28;20208;-81
2023/07/17 02:53:39;;;;;;;4.00;3.60;;;;;;;18.18;69.94;100689.69;4978044;28;20560;-82
2023/07/17 02:56:05;;;;;;;4.63;3.77;;;;;;;18.06;70.24;100696.41;4979280;28;20259;-81
2023/07/17 02:58:32;;;;;;;3.83;3.53;;;;;;;18.13;70.77;100694.34;4977522;28;20224;-82
2023/07/17 03:00:58;;;;;;;6.20;4.00;;;;;;;18.11;70.12;100698.81;4976608;28;20232;-82
2023/07/17 03:03:25;;;;;;;3.77;3.47;;;;;;;18.11;70.40;100696.19;4974587;28;20286;-81
2023/07/17 03:05:56;;;;;;;3.80;3.20;;;;;;;18.11;69.52;100718.16;4979262;28;20212;-82
2023/07/17 03:08:22;;;;;;;4.47;3.30;;;;;;;18.10;69.50;100739.41;4979194;28;20227;-82
2023/07/17 03:10:49;;;;;;;3.63;3.33;;;;;;;18.11;69.92;100725.25;4980304;28;20215;-81
2023/07/17 03:13:16;;;;;;;4.10;3.80;;;;;;;18.15;69.50;100735.59;4979598;28;20208;-81
2023/07/17 03:15:42;;;;;;;3.57;3.20;;;;;;;18.20;69.23;100740.69;4980476;28;20666;-81
2023/07/17 03:18:09;;;;;;;3.90;3.20;;;;;;;18.16;69.08;100745.25;4981577;28;20264;-80
2023/07/17 03:20:35;;;;;;;3.70;3.40;;;;;;;18.14;69.07;100749.75;4958143;28;20298;-82
2023/07/17 03:23:03;;;;;;;4.53;3.67;;;;;;;18.16;68.86;100765.53;4957483;28;20215;-78
2023/07/17 03:25:29;;;;;;;4.30;3.90;;;;;;;18.13;69.43;100753.31;4972474;28;20223;-81
2023/07/17 03:27:56;;;;;;;4.00;3.57;;;;;;;18.13;69.29;100755.94;4979196;28;20666;-81
2023/07/17 03:30:22;;;;;;;5.00;4.07;;;;;;;18.16;69.25;100747.03;4980087;28;20204;-82
2023/07/17 03:32:49;;;;;;;5.03;2.90;;;;;;;18.13;69.09;100753.31;4977671;28;20212;-82
2023/07/17 03:35:15;;;;;;;4.20;3.80;;;;;;;18.09;68.19;100780.78;4983272;28;20210;-81
2023/07/17 03:37:41;;;;;;;4.30;3.20;;;;;;;17.92;64.78;100850.22;4979603;28;20208;-79
2023/07/17 03:40:10;;;;;;;4.03;3.63;;;;;;;17.72;65.22;100911.78;4977207;28;20224;-81
2023/07/17 03:42:37;;;;;;;4.13;3.73;;;;;;;17.59;65.29;100919.31;4979665;28;20247;-80
2023/07/17 03:45:04;;;;;;;4.10;3.70;;;;;;;16.79;68.68;100903.09;4978766;28;20266;-81
2023/07/17 03:47:31;;;;;;;5.00;3.73;;;;;;;16.78;70.13;100823.09;4980451;28;20754;-80
2023/07/17 03:49:57;;;;;;;5.70;4.07;;;;;;;17.05;70.13;100800.09;4999490;23;20242;-81
2023/07/17 03:52:24;;;;;;;4.43;3.47;;;;;;;17.05;69.24;100789.56;4975786;28;20231;-81
2023/07/17 03:54:50;;;;;;;4.20;3.70;;;;;;;17.27;69.16;100796.59;4976576;28;20212;-82
2023/07/17 03:57:18;;;;;;;3.93;3.53;;;;;;;17.40;69.03;100803.09;4977073;28;20216;-80
2023/07/17 03:59:48;;;;;;;4.60;3.77;;;;;;;17.57;68.98;100799.72;4975864;28;20238;-82
2023/07/17 04:02:15;;;;;;;4.53;3.60;;;;;;;17.66;69.06;100791.44;4949474;28;20355;-82
2023/07/17 04:04:42;;;;;;;4.67;3.90;;;;;;;17.69;69.58;100787.78;4965263;28;20229;-81
2023/07/17 04:07:08;;;;;;;4.17;3.87;;;;;;;17.67;70.48;100769.38;4963723;28;20216;-82
2023/07/17 04:09:34;;;;;;;4.33;3.93;;;;;;;17.50;69.04;100778.94;4956065;28;20225;-81
2023/07/17 04:12:03;;;;;;;5.40;4.53;;;;;;;17.63;69.15;100791.56;4966394;28;20215;-82
2023/07/17 04:14:31;;;;;;;3.87;3.17;;;;;;;17.62;70.87;100770.50;4969144;28;20209;-81
2023/07/17 04:16:57;;;;;;;3.80;3.50;;;;;;;17.56;68.77;100763.72;4955044;28;20209;-81
2023/07/17 04:19:24;;;;;;;4.30;4.00;;;;;;;17.66;70.51;100761.53;4961235;28;20223;-82
2023/07/17 04:21:51;;;;;;;3.73;3.43;;;;;;;17.72;71.67;100734.88;4966564;28;20274;-83
2023/07/17 04:24:17;;;;;;;3.90;3.60;;;;;;;17.72;72.37;100737.50;4961656;28;20215;-83
2023/07/17 04:26:44;;;;;;;4.77;3.90;;;;;;;17.69;69.77;100789.59;4970759;28;20219;-83
2023/07/17 04:29:11;;;;;;;3.87;3.57;;;;;;;17.80;69.11;100811.09;4964199;28;20204;-81
2023/07/17 04:31:39;;;;;;;4.47;3.50;;;;;;;17.89;69.18;100821.28;4962942;28;20298;-80
2023/07/17 04:34:05;;;;;;;7.70;4.03;;;;;;;17.82;66.93;100851.53;4964850;28;20604;-82
2023/07/17 04:36:32;;;;;;;4.10;3.70;;;;;;;17.92;66.05;100899.53;4957093;28;20217;-83
2023/07/17 04:38:58;;;;;;;3.73;3.43;;;;;;;18.04;66.32;100920.16;4960546;28;20205;-83
2023/07/17 04:41:24;;;;;;;4.47;3.87;;;;;;;17.82;67.41;100926.31;4965748;28;20233;-81
2023/07/17 04:43:51;;;;;;;4.40;4.00;;;;;;;17.96;68.15;100901.16;4955556;28;20208;-83
2023/07/17 04:46:17;;;;;;;5.30;3.87;;;;;;;18.10;68.33;100885.56;4959743;28;20222;-79
2023/07/17 04:48:45;;;;;;;5.80;4.47;;;;;;;18.21;68.19;100887.72;4959283;28;20206;-81
2023/07/17 04:51:11;;;;;;;4.30;3.60;;;;;;;18.31;68.19;100890.81;4963572;28;20308;-81
2023/07/17 04:53:38;;;;;;;4.43;3.80;;;;;;;18.35;67.59;100898.53;4954915;28;20224;-81
2023/07/17 04:56:04;;;;;;;3.60;3.30;;;;;;;18.20;66.52;100925.66;4963374;28;20208;-83
2023/07/17 04:58:32;;;;;;;3.93;3.47;;;;;;;18.27;67.51;100919.16;4969430;28;20208;-81
2023/07/17 05:00:59;;;;;;;4.20;3.70;;;;;;;18.35;68.72;100887.13;4957154;28;20233;-80
2023/07/17 05:03:27;;;;;;;4.17;3.87;;;;;;;18.44;69.48;100868.22;4961817;28;20283;-81
2023/07/17 05:05:55;;;;;;;4.23;3.90;;;;;;;18.48;69.94;100839.88;4968410;28;20745;-83
2023/07/17 05:08:23;;;;;;;6.90;4.20;;;;;;;18.53;71.31;100807.00;4955661;28;20213;-82
2023/07/17 05:10:54;;;;;;;4.23;3.83;;;;;;;18.60;71.98;100771.41;4955369;28;20225;-82
2023/07/17 05:13:20;;;;;;;3.77;3.43;;;;;;;18.63;71.85;100757.16;4967093;28;20250;-81
2023/07/17 05:15:47;;;;;;;4.30;3.90;;;;;;;18.65;71.43;100771.16;4957092;28;20217;-80
2023/07/17 05:18:13;;;;;;;4.60;4.20;;;;;;;18.62;70.85;100795.13;4955398;28;20776;-81
2023/07/17 05:20:39;;;;;;;4.67;3.77;;;;;;;18.70;69.78;100811.50;4955188;28;20252;-80
2023/07/17 05:23:07;;;;;;;3.80;3.40;;;;;;;18.70;68.14;100840.59;4954715;28;20216;-81
2023/07/17 05:25:34;;;;;;;4.47;3.53;;;;;;;18.81;68.38;100861.25;4956220;28;20223;-80
2023/07/17 05:28:00;;;;;;;4.40;3.40;;;;;;;18.83;67.82;100883.25;4959089;28;20239;-79
2023/07/17 05:30:26;;;;;;;4.07;3.40;;;;;;;18.91;68.63;100888.16;4959664;28;20231;-79
2023/07/17 05:32:53;;;;;;;4.03;3.73;;;;;;;18.97;69.17;100870.22;4967146;28;20212;-79
2023/07/17 05:35:19;;;;;;;5.07;4.03;;;;;;;19.02;69.83;100846.19;4959568;28;20593;-80
2023/07/17 05:37:46;;;;;;;4.20;3.67;;;;;;;18.91;67.78;100885.50;4959267;28;20216;-81
2023/07/17 05:40:14;;;;;;;4.37;3.70;;;;;;;19.04;69.40;100861.03;4967782;28;20236;-83
2023/07/17 05:42:40;;;;;;;4.50;4.10;;;;;;;19.09;69.93;100834.38;4960077;28;20223;-80
2023/07/17 05:45:08;;;;;;;3.80;3.30;;;;;;;19.17;69.66;100818.13;4959975;28;20260;-80
2023/07/17 05:47:35;;;;;;;4.70;4.30;;;;;;;19.18;69.63;100818.03;4962522;28;20232;-81
2023/07/17 05:50:01;;;;;;;5.03;3.83;;;;;;;19.15;73.55;100762.63;4976989;28;20251;-79
2023/07/17 05:52:28;;;;;;;4.30;3.57;;;;;;;19.20;73.39;100728.84;4969281;28;20216;-80
2023/07/17 05:54:54;;;;;;;4.37;3.47;;;;;;;19.20;71.74;100736.78;4962707;28;20212;-78
2023/07/17 05:57:22;;;;;;;4.57;3.43;;;;;;;19.22;70.30;100787.00;4961672;28;20854;-81
2023/07/17 05:59:49;;;;;;;3.00;2.67;;;;;;;19.18;69.06;100828.63;4959803;28;20225;-81
2023/07/17 06:02:15;;;;;;;4.27;3.27;;;;;;;19.26;68.04;100862.66;4960177;28;20204;-82
2023/07/17 06:04:42;;;;;;;3.47;3.17;;;;;;;19.31;66.64;100924.19;4961811;28;20240;-81
2023/07/17 06:07:09;;;;;;;5.90;3.50;;;;;;;19.18;65.71;100965.41;4969248;28;20216;-80
2023/07/17 06:09:36;;;;;;;4.40;3.50;;;;;;;19.33;65.98;100972.63;4960932;28;20227;-81
2023/07/17 06:12:03;;;;;;;4.60;3.17;;;;;;;19.31;65.48;100997.47;4971597;28;20215;-81
2023/07/17 06:14:30;;;;;;;4.17;3.10;;;;;;;19.29;65.52;100997.53;4961244;28;20229;-82
2023/07/17 06:16:57;;;;;;;3.57;3.10;;;;;;;19.16;65.41;101022.84;4972251;28;20211;-80
2023/07/17 06:19:23;;;;;;;4.33;3.70;;;;;;;19.18;65.55;101015.69;4963728;28;20256;-78
2023/07/17 06:21:50;;;;;;;5.70;3.20;;;;;;;19.33;66.84;100996.44;4962689;28;21017;-79
2023/07/17 06:24:16;;;;;;;3.60;3.10;;;;;;;19.34;65.86;101007.88;4961863;28;20212;-80
2023/07/17 06:26:43;;;;;;;6.67;3.57;;;;;;;19.31;66.85;100979.78;4963838;28;20212;-80
2023/07/17 06:29:10;;;;;;;3.77;3.20;;;;;;;19.20;66.00;100995.28;4965857;28;20231;-81
2023/07/17 06:31:38;;;;;;;4.00;3.47;;;;;;;19.28;66.33;100993.16;4967975;28;20231;-80
2023/07/17 06:34:05;;;;;;;3.93;3.60;;;;;;;19.21;66.72;100975.84;4963554;28;20220;-80
2023/07/17 06:36:31;;;;;;;4.73;3.67;;;;;;;19.32;67.25;100973.53;4967869;28;20278;-82
2023/07/17 06:38:57;;;;;;;3.63;3.33;;;;;;;19.34;66.38;100974.31;4963703;28;20232;-79
2023/07/17 06:41:24;;;;;;;3.33;2.73;;;;;;;19.43;66.48;100981.00;4964378;28;20233;-81
2023/07/17 06:43:50;;;;;;;3.37;3.07;;;;;;;19.41;66.11;100985.50;4959294;28;20584;-83
2023/07/17 06:46:17;;;;;;;4.73;3.03;;;;;;;19.42;66.10;100992.50;4960191;28;20213;-80
2023/07/17 06:48:44;;;;;;;3.17;2.87;;;;;;;19.43;65.89;101003.03;4962996;28;20205;-82
2023/07/17 06:51:10;;;;;;;3.70;2.60;;;;;;;19.17;65.70;101016.63;4961147;28;20237;-79
2023/07/17 06:53:37;;;;;;;3.17;2.63;;;;;;;18.94;64.61;101034.38;4961571;28;20213;-80
2023/07/17 06:56:04;;;;;;;2.87;2.20;;;;;;;19.04;65.40;101024.25;4962099;28;20205;-81
2023/07/17 06:58:30;;;;;;;3.27;2.40;;;;;;;19.03;65.07;101031.34;4965972;28;20208;-79
2023/07/17 07:00:57;;;;;;;3.43;2.60;;;;;;;18.98;63.68;101054.47;4965617;28;20233;-82
2023/07/17 07:03:24;;;;;;;2.77;2.57;;;;;;;19.07;64.04;101073.50;4963842;28;20254;-82
2023/07/17 07:05:56;;;;;;;3.97;2.50;;;;;;;19.16;65.57;101050.16;4963246;28;20208;-79
2023/07/17 07:08:22;;;;;;;3.03;2.83;;;;;;;19.32;65.35;101034.44;4951985;28;20256;-81
2023/07/17 07:10:51;;;;;;;4.23;2.63;;;;;;;19.41;64.04;101057.00;4963376;28;20220;-81
2023/07/17 07:13:20;;;;;;;3.27;2.70;;;;;;;19.56;63.95;101068.66;4964552;28;20220;-82
2023/07/17 07:15:48;;;;;;;2.57;2.37;;;;;;;19.59;63.26;101082.63;4963424;28;20565;-81
2023/07/17 07:18:14;;;;;;;3.80;2.50;;;;;;;19.63;62.58;101100.09;4963605;28;20306;-81
2023/07/17 07:20:41;;;;;;;2.53;2.20;;;;;;;19.64;62.09;101138.91;4958884;28;20225;-81
2023/07/17 07:23:09;;;;;;;3.20;2.30;;;;;;;19.70;62.46;101148.34;4952584;28;20212;-81
2023/07/17 07:25:35;;;;;;;3.07;2.50;;;;;;;19.53;62.27;101157.06;4954859;28;20205;-81
2023/07/17 07:28:02;;;;;;;3.30;2.37;;;;;;;19.64;63.73;101138.00;4955299;28;20205;-80
2023/07/17 07:30:29;;;;;;;4.43;2.40;;;;;;;19.65;62.99;101127.34;4956241;28;20229;-82
2023/07/17 07:32:55;;;;;;;2.60;2.40;;;;;;;19.75;62.53;101151.66;4957292;28;20240;-81
2023/07/17 07:35:22;;;;;;;2.67;2.27;;;;;;;19.65;61.92;101160.94;4958165;28;20208;-81
2023/07/17 07:37:48;;;;;;;3.20;2.37;;;;;;;19.69;63.13;101140.47;4953290;28;20205;-82
2023/07/17 07:40:16;;;;;;;2.37;2.03;;;;;;;19.87;64.07;101118.44;4955277;28;20230;-81
2023/07/17 07:42:43;;;;;;;1.93;1.80;;;;;;;19.95;62.43;101123.38;4953494;28;20240;-81
2023/07/17 07:45:10;;;;;;;3.23;2.00;;;;;;;20.12;62.28;101146.44;4952236;28;20285;-81
2023/07/17 07:47:37;;;;;;;2.57;2.00;;;;;;;20.13;61.93;101156.97;4954977;28;20215;-82
2023/07/17 07:50:04;;;;;;;2.03;1.83;;;;;;;20.21;62.08;101165.41;4954632;28;20240;-81
2023/07/17 07:52:31;;;;;;;2.53;2.33;;;;;;;20.28;62.10;101173.06;4955874;28;20201;-82
2023/07/17 07:54:57;;;;;;;3.20;2.17;;;;;;;20.31;61.93;101184.38;4955321;28;20208;-81
2023/07/17 07:57:25;;;;;;;2.60;2.00;;;;;;;20.14;58.96;101218.81;4972063;28;20188;-79
2023/07/17 07:59:52;;;;;;;2.77;1.53;;;;;;;20.16;59.51;101243.47;4964667;28;20641;-83
2023/07/17 08:02:18;;;;;;;2.10;1.87;;;;;;;20.12;59.75;101263.06;4959332;28;20708;-80
2023/07/17 08:04:45;;;;;;;2.30;1.67;;;;;;;20.22;59.66;101262.59;4956385;28;20232;-82
2023/07/17 08:07:11;;;;;;;1.90;1.53;;;;;;;20.41;60.00;101261.72;4958299;28;20259;-83
2023/07/17 08:09:38;;;;;;;1.87;1.47;;;;;;;20.43;57.85;101281.97;4957743;28;20224;-83
2023/07/17 08:12:05;;;;;;;3.03;2.07;;;;;;;20.52;57.52;101301.88;4955562;28;20206;-83
2023/07/17 08:14:33;;;;;;;3.00;1.67;;;;;;;20.54;57.27;101345.09;4959625;28;20217;-83
2023/07/17 08:16:59;;;;;;;2.03;1.63;;;;;;;20.32;57.05;101369.09;4963887;28;20217;-82
2023/07/17 08:19:26;;;;;;;2.37;1.47;;;;;;;20.29;57.72;101358.59;4955790;28;20291;-83
2023/07/17 08:21:52;;;;;;;1.40;1.30;;;;;;;20.38;58.30;101337.00;4968584;28;20235;-84
2023/07/17 08:24:19;;;;;;;1.93;1.50;;;;;;;20.24;57.44;101355.31;4975307;28;20204;-81
2023/07/17 08:26:45;;;;;;;3.97;1.90;;;;;;;20.23;58.53;101353.59;4975853;28;20231;-82
2023/07/17 08:29:12;;;;;;;2.77;1.60;;;;;;;20.22;56.68;101362.47;4972710;28;20205;-82
2023/07/17 08:31:40;;;;;;;4.63;1.60;;;;;;;20.37;57.30;101376.81;4980937;28;20192;-81
2023/07/17 08:34:06;;;;;;;1.60;1.43;;;;;;;20.55;58.35;101343.31;4967629;28;20291;-79
2023/07/17 08:36:33;;;;;;;3.07;1.60;;;;;;;20.69;57.61;101353.31;4960024;28;20209;-82
2023/07/17 08:38:59;;;;;;;1.80;1.30;;;;;;;20.85;56.45;101369.38;4964017;28;20204;-82
2023/07/17 08:41:26;;;;;;;3.93;2.07;;;;;;;20.88;54.71;101435.59;4969525;28;20231;-79
2023/07/17 08:43:53;;;;;;;1.37;1.27;;;;;;;21.01;53.82;101465.94;4962933;28;20213;-81
2023/07/17 08:46:20;;;;;;;1.63;1.50;;;;;;;20.98;53.13;101505.91;4959391;28;20209;-79
2023/07/17 08:48:49;;;;;;;2.83;2.03;;;;;;;21.14;54.30;101500.75;4967044;28;20283;-78
2023/07/17 08:51:16;;;;;;;2.33;1.43;;;;;;;21.35;56.31;101459.91;4959618;28;20239;-81
2023/07/17 08:53:45;;;;;;;2.10;1.60;;;;;;;21.45;54.17;101475.41;4964136;28;20208;-81
2023/07/17 08:56:12;;;;;;;1.97;1.40;;;;;;;21.52;54.38;101488.34;4966339;28;20258;-78
2023/07/17 08:58:40;;;;;;;2.07;1.63;;;;;;;21.48;52.91;101509.81;4962439;28;20700;-81
2023/07/17 09:01:07;;;;;;;2.80;1.63;;;;;;;21.57;53.36;101518.22;4961672;28;20319;-79
2023/07/17 09:03:36;;;;;;;2.83;1.50;;;;;;;21.71;53.67;101522.00;4966093;28;20232;-81
2023/07/17 09:06:05;;;;;;;1.90;1.70;;;;;;;21.54;51.79;101544.06;4958820;28;20306;-80
2023/07/17 09:08:32;;;;;;;2.13;1.30;;;;;;;21.71;53.37;101532.63;4957555;28;20216;-79
2023/07/17 09:11:02;;;;;;;1.93;1.50;;;;;;;21.74;52.70;101556.41;4958528;28;20303;-81
2023/07/17 09:13:36;;;;;;;1.80;1.60;;;;;;;21.58;50.70;101581.03;4958409;28;20247;-80
2023/07/17 09:16:13;;;;;;;3.33;1.83;;;;;;;21.51;50.31;101626.59;4958163;28;20217;-80
2023/07/17 09:18:40;;;;;;;1.90;1.70;;;;;;;21.40;51.76;101627.88;4959519;28;20205;-81
2023/07/17 09:21:08;;;;;;;3.13;2.07;;;;;;;21.47;50.15;101646.25;4967010;28;20231;-81
2023/07/17 09:23:39;;;;;;;1.57;1.37;;;;;;;21.57;49.89;101669.66;4950322;28;20208;-79
2023/07/17 09:26:05;;;;;;;1.87;1.67;;;;;;;21.38;49.63;101676.69;4966798;28;20235;-77
2023/07/17 09:28:37;;;;;;;2.43;1.50;;;;;;;21.47;50.53;101660.41;4959387;28;20255;-79
2023/07/17 09:31:04;;;;;;;2.27;1.50;;;;;;;21.31;49.10;101694.72;4965917;28;20252;-80
2023/07/17 09:33:35;;;;;;;2.43;1.87;;;;;;;21.18;48.42;101714.75;4959640;28;20242;-80
2023/07/17 09:36:02;;;;;;;2.47;1.97;;;;;;;21.27;49.45;101714.38;4958687;28;20209;-79
2023/07/17 09:38:31;;;;;;;2.33;1.80;;;;;;;21.37;49.46;101714.84;4957557;28;20209;-81
2023/07/17 09:40:58;;;;;;;3.50;1.60;;;;;;;21.25;47.96;101744.56;4959937;28;20228;-78
2023/07/17 09:43:30;;;;;;;2.50;1.77;;;;;;;21.39;48.52;101752.81;4959076;28;20216;-82
2023/07/17 09:45:59;;;;;;;3.87;1.77;;;;;;;21.38;48.98;101743.09;4959055;28;20228;-79
2023/07/17 09:48:27;;;;;;;1.87;1.70;;;;;;;21.35;49.09;101737.94;4959208;28;20216;-80
2023/07/17 09:50:57;;;;;;;2.47;1.90;;;;;;;21.51;49.86;101719.56;4980434;23;20810;-80
2023/07/17 09:53:25;;;;;;;3.07;1.80;;;;;;;21.59;49.44;101710.31;4975557;28;20210;-81
2023/07/17 09:55:55;;;;;;;2.60;1.93;;;;;;;21.62;48.76;101709.31;4975777;28;20215;-81
2023/07/17 09:58:24;;;;;;;2.53;1.80;;;;;;;21.75;48.66;101730.91;4976178;28;20204;-81
2023/07/17 10:00:54;;;;;;;2.40;1.60;;;;;;;21.84;47.97;101750.88;4976957;28;20251;-80
2023/07/17 10:03:24;;;;;;;4.00;1.80;;;;;;;21.44;48.42;101766.78;4976284;28;20294;-81
2023/07/17 10:05:52;;;;;;;2.43;1.80;;;;;;;21.53;48.30;101777.03;4974523;28;20263;-82
2023/07/17 10:08:19;;;;;;;3.10;2.47;;;;;;;21.63;47.93;101774.81;4977278;28;20568;-81
2023/07/17 10:10:46;;;;;;;2.73;1.70;;;;;;;21.74;47.81;101774.34;4977990;28;20224;-80
2023/07/17 10:13:15;;;;;;;2.20;2.00;;;;;;;21.42;47.21;101804.00;4976108;28;20204;-82
2023/07/17 10:15:42;;;;;;;3.10;1.90;;;;;;;21.52;47.47;101811.63;4979623;28;20295;-82
2023/07/17 10:18:11;;;;;;;2.30;2.00;;;;;;;21.57;47.83;101809.66;4980155;28;20210;-80
2023/07/17 10:20:38;;;;;;;3.17;1.80;;;;;;;21.78;47.53;101803.41;4972073;28;20228;-82
2023/07/17 10:23:10;;;;;;;2.57;1.90;;;;;;;21.80;46.64;101827.22;4984229;28;20231;-81
2023/07/17 10:25:37;;;;;;;3.70;2.07;;;;;;;21.79;46.51;101852.97;4987530;28;20267;-82
2023/07/17 10:28:04;;;;;;;2.63;1.83;;;;;;;21.71;46.50;101855.09;4984101;28;20232;-83
2023/07/17 10:30:33;;;;;;;2.33;1.87;;;;;;;21.67;47.10;101857.94;4980655;28;20255;-81
2023/07/17 10:33:22;;;;;;;2.53;2.00;;;;;;;21.49;47.30;101848.97;4981567;28;20259;-82
2023/07/17 10:35:51;;;;;;;2.70;1.87;;;;;;;21.52;47.56;101833.72;4975562;28;20204;-83
2023/07/17 10:38:19;;;;;;;2.67;1.90;;;;;;;21.61;47.61;101827.19;4978141;28;20204;-82
2023/07/17 10:40:46;;;;;;;1.53;1.40;;;;;;;21.62;47.23;101818.25;4984249;28;20644;-81
2023/07/17 10:43:16;;;;;;;2.03;1.80;;;;;;;21.61;47.59;101819.22;4984669;28;20224;-81
2023/07/17 10:45:45;;;;;;;2.53;2.20;;;;;;;21.90;46.88;101836.56;4990656;28;20203;-82
2023/07/17 10:48:12;;;;;;;2.10;1.90;;;;;;;22.18;47.06;101832.66;4974605;28;20209;-80
2023/07/17 10:50:39;;;;;;;2.77;2.00;;;;;;;22.45;45.78;101851.81;4966193;28;20650;-81
2023/07/17 10:53:09;;;;;;;2.53;2.10;;;;;;;22.49;46.41;101871.19;4966865;28;20229;-82
2023/07/17 10:55:36;;;;;;;2.03;1.70;;;;;;;22.39;45.88;101878.72;4960905;28;20245;-82
2023/07/17 10:58:02;;;;;;;1.93;1.80;;;;;;;22.24;46.05;101896.25;4962783;28;20209;-81
2023/07/17 11:00:29;;;;;;;2.20;2.00;;;;;;;22.35;47.02;101856.69;4962072;28;20232;-83
2023/07/17 11:02:57;;;;;;;2.23;2.03;;;;;;;22.38;45.97;101859.25;4961703;28;20239;-84
2023/07/17 11:05:23;;;;;;;2.20;1.90;;;;;;;22.31;45.58;101872.88;4961514;28;20580;-84
2023/07/17 11:07:50;;;;;;;2.60;1.93;;;;;;;22.08;46.75;101876.53;4972900;28;20204;-84
2023/07/17 11:10:16;;;;;;;4.70;2.20;;;;;;;22.16;46.04;101853.13;4982289;28;20353;-82
2023/07/17 11:12:43;;;;;;;3.07;2.03;;;;;;;22.30;46.33;101861.38;4981749;28;20212;-84
2023/07/17 11:15:15;;;;;;;2.30;2.10;;;;;;;22.47;46.47;101859.75;4980530;28;20875;-82
2023/07/17 11:17:41;;;;;;;3.10;2.07;;;;;;;22.27;46.01;101877.47;4980231;28;20211;-83
2023/07/17 11:20:11;;;;;;;2.23;2.00;;;;;;;21.97;46.03;101882.34;4979668;28;20628;-84
2023/07/17 11:22:40;;;;;;;2.00;1.90;;;;;;;22.26;46.07;101875.75;4979938;28;20235;-83
2023/07/17 11:25:07;;;;;;;2.87;2.17;;;;;;;22.26;45.15;101890.84;4980943;28;20212;-83